Terminal Aerodrome Forecast
Issued by NWS Wilmington, NC

Home | Current Version | Previous Version | Text Only | Print | Product List | Glossary On
Versions: 1 2 3 4 5 6 7 8 9 10 11 12 13 14 15
000
FTUS42 KILM 281129
TAFFLO
TAF
KFLO 281129Z 2812/2912 VRB05KT P6SM SCT030 SCT100 SCT250
     FM281600 14006KT P6SM VCSH BKN035 BKN060
     FM282100 15007KT P6SM FEW060 SCT120 BKN250
     FM290200 VRB03KT P6SM FEW060 SCT140=

USA.gov is the U.S. government's official web portal to all federal, state and local government web resources and services.